sensor_id;sensor_type;location;lat;lon;timestamp;pressure;altitude;pressure_sealevel;temperature;humidity
80128;BME280;69440;52.118;5.408;2023-07-13T00:00:43;101463.69;;;17.92;69.14
80128;BME280;69440;52.118;5.408;2023-07-13T00:03:09;101461.84;;;17.92;69.65
80128;BME280;69440;52.118;5.408;2023-07-13T00:05:36;101470.75;;;17.94;69.65
80128;BME280;69440;52.118;5.408;2023-07-13T00:08:02;101471.75;;;17.82;69.75
80128;BME280;69440;52.118;5.408;2023-07-13T00:10:29;101466.31;;;17.82;70.23
80128;BME280;69440;52.118;5.408;2023-07-13T00:12:56;101470.63;;;17.85;70.39
80128;BME280;69440;52.118;5.408;2023-07-13T00:15:25;101474.47;;;17.82;70.39
80128;BME280;69440;52.118;5.408;2023-07-13T00:17:54;101468.28;;;17.80;70.26
80128;BME280;69440;52.118;5.408;2023-07-13T00:20:22;101471.38;;;17.76;69.77
80128;BME280;69440;52.118;5.408;2023-07-13T00:22:52;101470.59;;;17.74;69.69
80128;BME280;69440;52.118;5.408;2023-07-13T00:25:21;101474.75;;;17.66;69.57
80128;BME280;69440;52.118;5.408;2023-07-13T00:27:48;101474.50;;;17.58;70.07
80128;BME280;69440;52.118;5.408;2023-07-13T00:30:15;101469.41;;;17.54;69.99
80128;BME280;69440;52.118;5.408;2023-07-13T00:32:41;101472.88;;;17.56;69.76
80128;BME280;69440;52.118;5.408;2023-07-13T00:35:08;101474.84;;;17.54;70.12
80128;BME280;69440;52.118;5.408;2023-07-13T00:37:35;101471.16;;;17.55;70.00
80128;BME280;69440;52.118;5.408;2023-07-13T00:40:06;101468.56;;;17.53;70.09
80128;BME280;69440;52.118;5.408;2023-07-13T00:42:33;101469.28;;;17.55;70.20
80128;BME280;69440;52.118;5.408;2023-07-13T00:47:30;101473.25;;;17.51;70.09
80128;BME280;69440;52.118;5.408;2023-07-13T00:49:57;101468.28;;;17.45;69.90
80128;BME280;69440;52.118;5.408;2023-07-13T00:52:24;101479.50;;;17.41;70.47
80128;BME280;69440;52.118;5.408;2023-07-13T00:54:50;101476.91;;;17.39;70.86
80128;BME280;69440;52.118;5.408;2023-07-13T00:57:18;101475.66;;;17.32;70.84
80128;BME280;69440;52.118;5.408;2023-07-13T00:59:50;101470.09;;;17.33;70.55
80128;BME280;69440;52.118;5.408;2023-07-13T01:02:18;101475.66;;;17.32;70.94
80128;BME280;69440;52.118;5.408;2023-07-13T01:04:45;101470.56;;;17.27;71.25
80128;BME280;69440;52.118;5.408;2023-07-13T01:07:12;101471.78;;;17.23;71.05
80128;BME280;69440;52.118;5.408;2023-07-13T01:09:42;101470.19;;;17.21;71.45
80128;BME280;69440;52.118;5.408;2023-07-13T01:12:09;101474.00;;;17.18;71.83
80128;BME280;69440;52.118;5.408;2023-07-13T01:14:35;101473.25;;;17.16;71.57
80128;BME280;69440;52.118;5.408;2023-07-13T01:17:03;101483.25;;;17.16;71.64
80128;BME280;69440;52.118;5.408;2023-07-13T01:19:36;101483.47;;;17.13;71.95
80128;BME280;69440;52.118;5.408;2023-07-13T01:22:10;101490.06;;;17.21;72.15
80128;BME280;69440;52.118;5.408;2023-07-13T01:24:39;101488.22;;;17.22;72.10
80128;BME280;69440;52.118;5.408;2023-07-13T01:27:07;101489.09;;;17.22;72.16
80128;BME280;69440;52.118;5.408;2023-07-13T01:29:36;101490.53;;;17.15;72.60
80128;BME280;69440;52.118;5.408;2023-07-13T01:32:14;101486.28;;;17.11;72.52
80128;BME280;69440;52.118;5.408;2023-07-13T01:34:41;101483.81;;;17.08;72.55
80128;BME280;69440;52.118;5.408;2023-07-13T01:37:10;101490.94;;;16.98;72.96
80128;BME280;69440;52.118;5.408;2023-07-13T01:39:37;101492.78;;;16.97;73.13
80128;BME280;69440;52.118;5.408;2023-07-13T01:42:04;101489.09;;;16.98;73.28
80128;BME280;69440;52.118;5.408;2023-07-13T01:44:31;101485.75;;;16.95;73.36
80128;BME280;69440;52.118;5.408;2023-07-13T01:46:58;101486.94;;;16.91;73.12
80128;BME280;69440;52.118;5.408;2023-07-13T01:49:25;101492.72;;;16.86;73.59
80128;BME280;69440;52.118;5.408;2023-07-13T01:51:51;101489.03;;;16.87;73.45
80128;BME280;69440;52.118;5.408;2023-07-13T01:54:18;101484.72;;;16.72;73.73
80128;BME280;69440;52.118;5.408;2023-07-13T01:56:44;101490.03;;;16.73;73.81
80128;BME280;69440;52.118;5.408;2023-07-13T01:59:11;101492.25;;;16.68;73.92
80128;BME280;69440;52.118;5.408;2023-07-13T02:01:37;101484.97;;;16.69;73.92
80128;BME280;69440;52.118;5.408;2023-07-13T02:04:04;101484.00;;;16.57;74.08
80128;BME280;69440;52.118;5.408;2023-07-13T02:06:31;101492.91;;;16.59;74.67
80128;BME280;69440;52.118;5.408;2023-07-13T02:08:58;101486.72;;;16.57;74.32
80128;BME280;69440;52.118;5.408;2023-07-13T02:11:25;101492.16;;;16.57;74.53
80128;BME280;69440;52.118;5.408;2023-07-13T02:14:02;101503.00;;;16.57;74.71
80128;BME280;69440;52.118;5.408;2023-07-13T02:16:30;101505.84;;;16.56;74.26
80128;BME280;69440;52.118;5.408;2023-07-13T02:18:57;101509.31;;;16.58;74.43
80128;BME280;69440;52.118;5.408;2023-07-13T02:21:24;101507.56;;;16.57;74.61
80128;BME280;69440;52.118;5.408;2023-07-13T02:23:50;101510.59;;;16.52;74.92
80128;BME280;69440;52.118;5.408;2023-07-13T02:26:17;101504.22;;;16.53;74.65
80128;BME280;69440;52.118;5.408;2023-07-13T02:28:44;101500.06;;;16.48;75.19
80128;BME280;69440;52.118;5.408;2023-07-13T02:31:13;101503.78;;;16.46;75.29
80128;BME280;69440;52.118;5.408;2023-07-13T02:33:40;101499.97;;;16.49;74.99
80128;BME280;69440;52.118;5.408;2023-07-13T02:36:07;101505.38;;;16.49;75.06
80128;BME280;69440;52.118;5.408;2023-07-13T02:38:35;101508.13;;;16.36;75.50
80128;BME280;69440;52.118;5.408;2023-07-13T02:41:04;101506.41;;;16.35;75.65
80128;BME280;69440;52.118;5.408;2023-07-13T02:43:30;101511.94;;;16.34;75.94
80128;BME280;69440;52.118;5.408;2023-07-13T02:45:58;101520.31;;;16.31;76.23
80128;BME280;69440;52.118;5.408;2023-07-13T02:48:30;101509.44;;;16.18;76.43
80128;BME280;69440;52.118;5.408;2023-07-13T02:50:57;101502.19;;;16.19;76.40
80128;BME280;69440;52.118;5.408;2023-07-13T02:53:23;101507.94;;;16.14;77.08
80128;BME280;69440;52.118;5.408;2023-07-13T02:55:50;101501.13;;;16.08;77.10
80128;BME280;69440;52.118;5.408;2023-07-13T02:58:17;101501.00;;;16.10;77.37
80128;BME280;69440;52.118;5.408;2023-07-13T03:00:44;101506.44;;;16.10;77.74
80128;BME280;69440;52.118;5.408;2023-07-13T03:03:13;101510.97;;;16.09;77.91
80128;BME280;69440;52.118;5.408;2023-07-13T03:05:41;101511.97;;;16.08;77.52
80128;BME280;69440;52.118;5.408;2023-07-13T03:08:11;101511.53;;;16.02;78.03
80128;BME280;69440;52.118;5.408;2023-07-13T03:10:38;101519.13;;;15.97;78.20
80128;BME280;69440;52.118;5.408;2023-07-13T03:13:06;101516.09;;;16.01;78.34
80128;BME280;69440;52.118;5.408;2023-07-13T03:15:32;101521.28;;;16.04;78.00
80128;BME280;69440;52.118;5.408;2023-07-13T03:17:59;101516.53;;;16.08;78.00
80128;BME280;69440;52.118;5.408;2023-07-13T03:20:26;101524.00;;;16.04;78.38
80128;BME280;69440;52.118;5.408;2023-07-13T03:22:52;101516.84;;;16.03;78.00
80128;BME280;69440;52.118;5.408;2023-07-13T03:25:19;101522.59;;;15.99;78.58
80128;BME280;69440;52.118;5.408;2023-07-13T03:27:45;101529.88;;;15.98;78.40
80128;BME280;69440;52.118;5.408;2023-07-13T03:30:12;101523.38;;;16.01;78.78
80128;BME280;69440;52.118;5.408;2023-07-13T03:32:39;101524.44;;;15.98;78.76
80128;BME280;69440;52.118;5.408;2023-07-13T03:35:05;101532.47;;;16.00;78.68
80128;BME280;69440;52.118;5.408;2023-07-13T03:37:32;101538.97;;;15.97;79.05
80128;BME280;69440;52.118;5.408;2023-07-13T03:39:58;101535.28;;;15.98;79.09
80128;BME280;69440;52.118;5.408;2023-07-13T03:42:25;101540.94;;;15.95;79.22
80128;BME280;69440;52.118;5.408;2023-07-13T03:44:52;101543.53;;;15.97;79.53
80128;BME280;69440;52.118;5.408;2023-07-13T03:47:19;101543.66;;;15.95;79.59
80128;BME280;69440;52.118;5.408;2023-07-13T03:49:45;101537.25;;;15.96;79.92
80128;BME280;69440;52.118;5.408;2023-07-13T03:52:12;101539.84;;;15.98;79.99
80128;BME280;69440;52.118;5.408;2023-07-13T03:54:39;101552.53;;;15.97;79.68
80128;BME280;69440;52.118;5.408;2023-07-13T03:57:05;101550.38;;;16.02;79.64
80128;BME280;69440;52.118;5.408;2023-07-13T03:59:32;101551.25;;;16.03;79.86
80128;BME280;69440;52.118;5.408;2023-07-13T04:02:00;101554.50;;;15.95;79.97
80128;BME280;69440;52.118;5.408;2023-07-13T04:04:27;101554.28;;;15.98;80.02
80128;BME280;69440;52.118;5.408;2023-07-13T04:06:54;101558.72;;;15.99;80.24
80128;BME280;69440;52.118;5.408;2023-07-13T04:09:21;101568.59;;;16.00;80.06
80128;BME280;69440;52.118;5.408;2023-07-13T04:11:47;101566.84;;;15.99;80.12
80128;BME280;69440;52.118;5.408;2023-07-13T04:14:14;101564.16;;;15.99;79.90
80128;BME280;69440;52.118;5.408;2023-07-13T04:16:40;101567.94;;;15.97;79.92
80128;BME280;69440;52.118;5.408;2023-07-13T04:19:08;101573.16;;;16.00;79.84
80128;BME280;69440;52.118;5.408;2023-07-13T04:21:36;101570.53;;;15.98;80.06
80128;BME280;69440;52.118;5.408;2023-07-13T04:24:03;101578.78;;;15.97;79.90
80128;BME280;69440;52.118;5.408;2023-07-13T04:26:30;101580.31;;;16.01;80.23
80128;BME280;69440;52.118;5.408;2023-07-13T04:28:57;101570.75;;;15.95;80.17
80128;BME280;69440;52.118;5.408;2023-07-13T04:31:24;101583.66;;;16.04;80.35
80128;BME280;69440;52.118;5.408;2023-07-13T04:33:51;101581.81;;;16.05;80.23
80128;BME280;69440;52.118;5.408;2023-07-13T04:36:17;101575.53;;;16.04;80.37
80128;BME280;69440;52.118;5.408;2023-07-13T04:38:44;101582.59;;;16.07;80.49
80128;BME280;69440;52.118;5.408;2023-07-13T04:41:11;101577.38;;;16.04;80.70
80128;BME280;69440;52.118;5.408;2023-07-13T04:43:38;101582.38;;;16.10;80.69
80128;BME280;69440;52.118;5.408;2023-07-13T04:46:07;101582.78;;;16.17;80.54
80128;BME280;69440;52.118;5.408;2023-07-13T04:48:34;101575.31;;;16.20;80.52
80128;BME280;69440;52.118;5.408;2023-07-13T04:51:02;101583.03;;;16.26;80.49
80128;BME280;69440;52.118;5.408;2023-07-13T04:53:29;101582.94;;;16.28;80.56
80128;BME280;69440;52.118;5.408;2023-07-13T04:55:56;101587.03;;;16.21;80.91
80128;BME280;69440;52.118;5.408;2023-07-13T04:58:23;101582.81;;;16.29;80.60
80128;BME280;69440;52.118;5.408;2023-07-13T05:00:50;101580.00;;;16.31;80.77
80128;BME280;69440;52.118;5.408;2023-07-13T05:03:17;101578.47;;;16.27;81.18
80128;BME280;69440;52.118;5.408;2023-07-13T05:05:54;101578.78;;;16.35;80.92
80128;BME280;69440;52.118;5.408;2023-07-13T05:08:21;101588.56;;;16.37;81.16
80128;BME280;69440;52.118;5.408;2023-07-13T05:10:48;101588.44;;;16.39;81.35
80128;BME280;69440;52.118;5.408;2023-07-13T05:13:14;101584.97;;;16.37;81.19
80128;BME280;69440;52.118;5.408;2023-07-13T05:15:41;101587.69;;;16.37;81.31
80128;BME280;69440;52.118;5.408;2023-07-13T05:18:07;101588.25;;;16.29;81.94
80128;BME280;69440;52.118;5.408;2023-07-13T05:20:34;101595.84;;;16.37;81.83
80128;BME280;69440;52.118;5.408;2023-07-13T05:23:00;101589.97;;;16.43;81.59
80128;BME280;69440;52.118;5.408;2023-07-13T05:25:27;101603.84;;;16.51;81.37
80128;BME280;69440;52.118;5.408;2023-07-13T05:27:54;101602.00;;;16.52;81.63
80128;BME280;69440;52.118;5.408;2023-07-13T05:30:20;101599.97;;;16.55;81.57
80128;BME280;69440;52.118;5.408;2023-07-13T05:32:47;101602.22;;;16.61;81.75
80128;BME280;69440;52.118;5.408;2023-07-13T05:35:13;101598.88;;;16.70;81.55
80128;BME280;69440;52.118;5.408;2023-07-13T05:37:40;101604.94;;;16.74;81.05
80128;BME280;69440;52.118;5.408;2023-07-13T05:40:07;101617.19;;;16.80;81.19
80128;BME280;69440;52.118;5.408;2023-07-13T05:42:33;101610.91;;;16.79;80.90
80128;BME280;69440;52.118;5.408;2023-07-13T05:45:00;101615.47;;;16.79;81.22
80128;BME280;69440;52.118;5.408;2023-07-13T05:47:26;101623.84;;;16.88;81.23
80128;BME280;69440;52.118;5.408;2023-07-13T05:49:53;101615.97;;;16.96;80.84
80128;BME280;69440;52.118;5.408;2023-07-13T05:52:20;101623.03;;;16.99;80.94
80128;BME280;69440;52.118;5.408;2023-07-13T05:54:46;101625.53;;;17.02;80.93
80128;BME280;69440;52.118;5.408;2023-07-13T05:57:13;101630.63;;;17.06;80.76
80128;BME280;69440;52.118;5.408;2023-07-13T05:59:39;101631.59;;;17.05;80.67
80128;BME280;69440;52.118;5.408;2023-07-13T06:02:09;101632.91;;;17.00;80.98
80128;BME280;69440;52.118;5.408;2023-07-13T06:04:35;101632.34;;;17.07;80.82
80128;BME280;69440;52.118;5.408;2023-07-13T06:07:02;101642.34;;;17.20;80.86
80128;BME280;69440;52.118;5.408;2023-07-13T06:09:28;101637.94;;;17.30;80.72
80128;BME280;69440;52.118;5.408;2023-07-13T06:11:55;101648.81;;;17.30;80.37
80128;BME280;69440;52.118;5.408;2023-07-13T06:14:21;101648.34;;;17.36;80.49
80128;BME280;69440;52.118;5.408;2023-07-13T06:16:48;101649.84;;;17.40;80.38
80128;BME280;69440;52.118;5.408;2023-07-13T06:19:14;101652.22;;;17.45;80.46
80128;BME280;69440;52.118;5.408;2023-07-13T06:21:41;101651.31;;;17.57;80.32
80128;BME280;69440;52.118;5.408;2023-07-13T06:24:08;101662.94;;;17.59;79.81
80128;BME280;69440;52.118;5.408;2023-07-13T06:26:34;101648.59;;;17.57;80.10
80128;BME280;69440;52.118;5.408;2023-07-13T06:29:01;101658.56;;;17.69;79.44
80128;BME280;69440;52.118;5.408;2023-07-13T06:31:27;101658.88;;;17.77;79.73
80128;BME280;69440;52.118;5.408;2023-07-13T06:33:54;101659.03;;;17.87;79.04
80128;BME280;69440;52.118;5.408;2023-07-13T06:36:20;101657.69;;;17.92;79.08
80128;BME280;69440;52.118;5.408;2023-07-13T06:38:47;101668.03;;;17.76;78.98
80128;BME280;69440;52.118;5.408;2023-07-13T06:41:14;101662.34;;;17.79;79.18
80128;BME280;69440;52.118;5.408;2023-07-13T06:43:41;101665.97;;;17.91;79.09
80128;BME280;69440;52.118;5.408;2023-07-13T06:46:07;101666.63;;;18.06;78.67
80128;BME280;69440;52.118;5.408;2023-07-13T06:48:34;101665.25;;;18.00;78.35
80128;BME280;69440;52.118;5.408;2023-07-13T06:51:02;101665.00;;;17.92;78.71
80128;BME280;69440;52.118;5.408;2023-07-13T06:53:28;101658.44;;;17.94;78.90
80128;BME280;69440;52.118;5.408;2023-07-13T06:55:55;101660.13;;;18.08;78.31
80128;BME280;69440;52.118;5.408;2023-07-13T06:58:22;101664.22;;;18.14;78.47
80128;BME280;69440;52.118;5.408;2023-07-13T07:00:51;101669.69;;;18.25;78.23
80128;BME280;69440;52.118;5.408;2023-07-13T07:03:18;101665.13;;;18.37;77.98
80128;BME280;69440;52.118;5.408;2023-07-13T07:05:45;101674.28;;;18.36;77.54
80128;BME280;69440;52.118;5.408;2023-07-13T07:08:12;101688.13;;;18.33;77.63
80128;BME280;69440;52.118;5.408;2023-07-13T07:10:40;101689.72;;;18.35;77.37
80128;BME280;69440;52.118;5.408;2023-07-13T07:13:12;101691.13;;;18.41;77.25
80128;BME280;69440;52.118;5.408;2023-07-13T07:15:53;101686.81;;;18.49;77.11
80128;BME280;69440;52.118;5.408;2023-07-13T07:18:20;101688.81;;;18.58;77.32
80128;BME280;69440;52.118;5.408;2023-07-13T07:20:49;101692.69;;;18.67;77.07
80128;BME280;69440;52.118;5.408;2023-07-13T07:23:19;101687.22;;;18.67;76.84
80128;BME280;69440;52.118;5.408;2023-07-13T07:25:49;101693.50;;;18.56;77.08
80128;BME280;69440;52.118;5.408;2023-07-13T07:28:16;101702.53;;;18.57;78.78
80128;BME280;69440;52.118;5.408;2023-07-13T07:30:54;101695.59;;;18.53;80.36
80128;BME280;69440;52.118;5.408;2023-07-13T07:33:34;101699.94;;;18.44;81.20
80128;BME280;69440;52.118;5.408;2023-07-13T07:36:03;101703.22;;;18.37;82.00
80128;BME280;69440;52.118;5.408;2023-07-13T07:38:33;101700.41;;;18.38;82.89
80128;BME280;69440;52.118;5.408;2023-07-13T07:41:05;101705.63;;;18.41;82.54
80128;BME280;69440;52.118;5.408;2023-07-13T07:43:35;101694.69;;;18.30;82.62
80128;BME280;69440;52.118;5.408;2023-07-13T07:46:02;101700.25;;;18.28;83.00
80128;BME280;69440;52.118;5.408;2023-07-13T07:48:30;101695.31;;;18.34;83.22
80128;BME280;69440;52.118;5.408;2023-07-13T07:50:57;101681.97;;;18.42;83.86
80128;BME280;69440;52.118;5.408;2023-07-13T07:53:23;101683.97;;;18.40;83.16
80128;BME280;69440;52.118;5.408;2023-07-13T07:55:50;101689.53;;;18.38;82.14
80128;BME280;69440;52.118;5.408;2023-07-13T07:58:20;101675.91;;;18.38;81.54
80128;BME280;69440;52.118;5.408;2023-07-13T08:00:50;101677.41;;;18.42;81.88
80128;BME280;69440;52.118;5.408;2023-07-13T08:03:19;101674.56;;;18.55;81.09
80128;BME280;69440;52.118;5.408;2023-07-13T08:05:52;101679.03;;;18.56;80.79
80128;BME280;69440;52.118;5.408;2023-07-13T08:08:22;101683.56;;;18.68;81.06
80128;BME280;69440;52.118;5.408;2023-07-13T08:10:48;101680.69;;;18.92;80.75
80128;BME280;69440;52.118;5.408;2023-07-13T08:13:15;101689.88;;;18.91;78.90
80128;BME280;69440;52.118;5.408;2023-07-13T08:15:42;101692.84;;;18.88;79.62
80128;BME280;69440;52.118;5.408;2023-07-13T08:18:08;101685.03;;;18.95;78.39
80128;BME280;69440;52.118;5.408;2023-07-13T08:20:39;101679.09;;;18.89;79.34
80128;BME280;69440;52.118;5.408;2023-07-13T08:23:07;101676.25;;;18.80;79.58
80128;BME280;69440;52.118;5.408;2023-07-13T08:25:35;101689.38;;;18.75;80.59
80128;BME280;69440;52.118;5.408;2023-07-13T08:28:03;101690.97;;;18.88;78.66
80128;BME280;69440;52.118;5.408;2023-07-13T08:30:30;101696.19;;;19.03;77.99
80128;BME280;69440;52.118;5.408;2023-07-13T08:32:56;101690.13;;;18.99;77.41
80128;BME280;69440;52.118;5.408;2023-07-13T08:35:23;101685.28;;;19.14;77.44
80128;BME280;69440;52.118;5.408;2023-07-13T08:37:52;101690.47;;;19.39;74.78
80128;BME280;69440;52.118;5.408;2023-07-13T08:40:19;101677.69;;;19.40;73.86
80128;BME280;69440;52.118;5.408;2023-07-13T08:42:54;101687.63;;;19.30;72.78
80128;BME280;69440;52.118;5.408;2023-07-13T08:45:41;101683.53;;;19.24;72.86
80128;BME280;69440;52.118;5.408;2023-07-13T08:48:40;101687.50;;;19.31;73.18
80128;BME280;69440;52.118;5.408;2023-07-13T08:54:01;101716.47;;;19.66;70.55
80128;BME280;69440;52.118;5.408;2023-07-13T08:56:30;101715.13;;;19.38;70.26
80128;BME280;69440;52.118;5.408;2023-07-13T08:59:01;101710.56;;;19.05;72.41
80128;BME280;69440;52.118;5.408;2023-07-13T09:04:22;101715.38;;;18.79;72.48
80128;BME280;69440;52.118;5.408;2023-07-13T09:07:29;101720.81;;;18.68;72.63
80128;BME280;69440;52.118;5.408;2023-07-13T09:12:56;101719.47;;;18.73;73.17
80128;BME280;69440;52.118;5.408;2023-07-13T09:15:32;101719.84;;;18.80;74.55
80128;BME280;69440;52.118;5.408;2023-07-13T09:20:37;101705.13;;;19.05;75.86
80128;BME280;69440;52.118;5.408;2023-07-13T09:23:14;101714.66;;;19.10;73.20
80128;BME280;69440;52.118;5.408;2023-07-13T09:25:42;101706.59;;;19.09;72.80
80128;BME280;69440;52.118;5.408;2023-07-13T09:28:28;101706.34;;;19.12;73.49
80128;BME280;69440;52.118;5.408;2023-07-13T09:33:26;101713.44;;;19.80;72.95
80128;BME280;69440;52.118;5.408;2023-07-13T09:35:56;101712.94;;;19.86;69.89
80128;BME280;69440;52.118;5.408;2023-07-13T09:38:27;101697.75;;;20.04;71.10
80128;BME280;69440;52.118;5.408;2023-07-13T09:41:01;101691.59;;;20.23;68.88
80128;BME280;69440;52.118;5.408;2023-07-13T09:43:30;101700.94;;;20.41;66.54
80128;BME280;69440;52.118;5.408;2023-07-13T09:45:57;101694.94;;;20.15;66.61
80128;BME280;69440;52.118;5.408;2023-07-13T09:48:24;101707.31;;;19.99;68.52
80128;BME280;69440;52.118;5.408;2023-07-13T09:50:54;101719.66;;;19.82;70.05
80128;BME280;69440;52.118;5.408;2023-07-13T09:53:22;101728.00;;;19.47;71.65
80128;BME280;69440;52.118;5.408;2023-07-13T09:55:49;101746.50;;;19.10;76.81
80128;BME280;69440;52.118;5.408;2023-07-13T09:58:22;101751.47;;;18.35;78.80
80128;BME280;69440;52.118;5.408;2023-07-13T10:00:55;101761.22;;;18.02;79.96
80128;BME280;69440;52.118;5.408;2023-07-13T10:03:27;101748.56;;;18.14;84.15
80128;BME280;69440;52.118;5.408;2023-07-13T10:05:54;101754.16;;;18.23;84.57
80128;BME280;69440;52.118;5.408;2023-07-13T10:08:26;101758.03;;;18.32;84.30
80128;BME280;69440;52.118;5.408;2023-07-13T10:11:01;101754.75;;;18.51;85.55
80128;BME280;69440;52.118;5.408;2023-07-13T10:13:42;101756.09;;;18.69;86.39
80128;BME280;69440;52.118;5.408;2023-07-13T10:16:11;101751.53;;;18.81;86.82
80128;BME280;69440;52.118;5.408;2023-07-13T10:18:44;101752.75;;;18.77;85.78
80128;BME280;69440;52.118;5.408;2023-07-13T10:21:15;101763.78;;;18.86;86.69
80128;BME280;69440;52.118;5.408;2023-07-13T10:24:11;101763.06;;;18.84;85.55
80128;BME280;69440;52.118;5.408;2023-07-13T10:26:36;101762.19;;;18.95;87.61
80128;BME280;69440;52.118;5.408;2023-07-13T10:29:11;101762.13;;;19.30;86.60
80128;BME280;69440;52.118;5.408;2023-07-13T10:31:40;101753.03;;;19.52;83.49
80128;BME280;69440;52.118;5.408;2023-07-13T10:34:10;101752.16;;;19.74;83.31
80128;BME280;69440;52.118;5.408;2023-07-13T10:36:44;101755.59;;;19.87;83.40
80128;BME280;69440;52.118;5.408;2023-07-13T10:39:16;101748.28;;;19.88;84.03
80128;BME280;69440;52.118;5.408;2023-07-13T10:41:47;101752.53;;;19.80;84.33
80128;BME280;69440;52.118;5.408;2023-07-13T10:44:36;101761.13;;;19.65;84.19
80128;BME280;69440;52.118;5.408;2023-07-13T10:47:14;101770.66;;;19.37;82.00
80128;BME280;69440;52.118;5.408;2023-07-13T10:49:42;101765.31;;;19.13;79.79
80128;BME280;69440;52.118;5.408;2023-07-13T10:58:20;101763.78;;;19.87;79.29
80128;BME280;69440;52.118;5.408;2023-07-13T11:03:49;101764.84;;;20.39;81.16
80128;BME280;69440;52.118;5.408;2023-07-13T11:09:33;101770.56;;;20.47;73.71
80128;BME280;69440;52.118;5.408;2023-07-13T11:11:51;101781.22;;;20.50;71.89
80128;BME280;69440;52.118;5.408;2023-07-13T11:14:28;101780.56;;;20.58;72.28
80128;BME280;69440;52.118;5.408;2023-07-13T11:16:55;101776.22;;;20.76;70.77
80128;BME280;69440;52.118;5.408;2023-07-13T11:24:50;101773.06;;;21.22;74.89
80128;BME280;69440;52.118;5.408;2023-07-13T11:32:39;101761.97;;;20.93;71.78
80128;BME280;69440;52.118;5.408;2023-07-13T11:35:13;101764.44;;;20.75;74.74
80128;BME280;69440;52.118;5.408;2023-07-13T11:37:45;101764.72;;;20.52;72.71
80128;BME280;69440;52.118;5.408;2023-07-13T11:40:13;101764.38;;;20.34;73.38
80128;BME280;69440;52.118;5.408;2023-07-13T11:42:41;101779.50;;;20.38;73.57
80128;BME280;69440;52.118;5.408;2023-07-13T11:45:22;101793.78;;;20.41;78.02
80128;BME280;69440;52.118;5.408;2023-07-13T11:48:00;101802.81;;;20.21;74.63
80128;BME280;69440;52.118;5.408;2023-07-13T11:50:27;101796.19;;;19.92;74.00
80128;BME280;69440;52.118;5.408;2023-07-13T11:52:54;101797.81;;;19.72;77.62
80128;BME280;69440;52.118;5.408;2023-07-13T11:55:22;101800.91;;;19.67;77.88
80128;BME280;69440;52.118;5.408;2023-07-13T11:57:55;101807.56;;;19.52;78.61
80128;BME280;69440;52.118;5.408;2023-07-13T12:00:28;101799.69;;;19.60;81.15
80128;BME280;69440;52.118;5.408;2023-07-13T12:02:59;101818.25;;;19.55;79.67
80128;BME280;69440;52.118;5.408;2023-07-13T12:05:27;101804.28;;;19.60;82.85
80128;BME280;69440;52.118;5.408;2023-07-13T12:07:53;101807.69;;;19.84;82.46
80128;BME280;69440;52.118;5.408;2023-07-13T12:13:05;101804.81;;;20.72;80.88
80128;BME280;69440;52.118;5.408;2023-07-13T12:15:37;101794.97;;;20.81;79.64
80128;BME280;69440;52.118;5.408;2023-07-13T12:18:21;101802.44;;;20.78;79.65
80128;BME280;69440;52.118;5.408;2023-07-13T12:20:50;101792.03;;;20.72;78.24
80128;BME280;69440;52.118;5.408;2023-07-13T12:25:45;101800.13;;;20.42;76.55
80128;BME280;69440;52.118;5.408;2023-07-13T12:31:04;101795.53;;;20.42;80.40
80128;BME280;69440;52.118;5.408;2023-07-13T12:33:31;101796.88;;;20.48;77.79
80128;BME280;69440;52.118;5.408;2023-07-13T12:36:03;101792.78;;;20.54;78.43
80128;BME280;69440;52.118;5.408;2023-07-13T12:38:32;101805.22;;;21.30;77.31
80128;BME280;69440;52.118;5.408;2023-07-13T12:41:01;101794.53;;;21.97;75.48
80128;BME280;69440;52.118;5.408;2023-07-13T12:43:32;101775.72;;;22.52;72.42
80128;BME280;69440;52.118;5.408;2023-07-13T12:46:18;101775.72;;;22.62;74.46
80128;BME280;69440;52.118;5.408;2023-07-13T12:48:51;101785.22;;;22.77;72.13
80128;BME280;69440;52.118;5.408;2023-07-13T12:51:38;101795.19;;;22.20;66.67
80128;BME280;69440;52.118;5.408;2023-07-13T12:54:14;101800.56;;;21.82;72.03
80128;BME280;69440;52.118;5.408;2023-07-13T12:56:43;101804.25;;;22.30;69.43
80128;BME280;69440;52.118;5.408;2023-07-13T12:59:19;101782.81;;;22.45;71.11
80128;BME280;69440;52.118;5.408;2023-07-13T13:01:48;101781.63;;;22.86;68.04
80128;BME280;69440;52.118;5.408;2023-07-13T13:04:16;101780.69;;;23.15;66.11
80128;BME280;69440;52.118;5.408;2023-07-13T13:06:48;101787.53;;;22.62;67.57
80128;BME280;69440;52.118;5.408;2023-07-13T13:09:16;101788.72;;;22.41;66.79
80128;BME280;69440;52.118;5.408;2023-07-13T13:11:44;101789.72;;;22.40;69.78
80128;BME280;69440;52.118;5.408;2023-07-13T13:14:11;101790.03;;;22.37;68.82
80128;BME280;69440;52.118;5.408;2023-07-13T13:16:46;101781.81;;;22.37;69.16
80128;BME280;69440;52.118;5.408;2023-07-13T13:19:18;101793.88;;;22.24;66.74
80128;BME280;69440;52.118;5.408;2023-07-13T13:21:48;101789.56;;;22.12;66.60
80128;BME280;69440;52.118;5.408;2023-07-13T13:24:21;101783.22;;;22.60;67.57
80128;BME280;69440;52.118;5.408;2023-07-13T13:26:50;101788.09;;;23.05;63.57
80128;BME280;69440;52.118;5.408;2023-07-13T13:29:19;101795.59;;;22.93;64.43
80128;BME280;69440;52.118;5.408;2023-07-13T13:31:46;101793.31;;;22.69;63.62
80128;BME280;69440;52.118;5.408;2023-07-13T13:34:15;101792.59;;;22.48;64.23
80128;BME280;69440;52.118;5.408;2023-07-13T13:36:43;101799.38;;;22.24;63.75
80128;BME280;69440;52.118;5.408;2023-07-13T13:39:34;101796.63;;;22.05;71.81
80128;BME280;69440;52.118;5.408;2023-07-13T13:42:01;101799.69;;;21.91;65.57
80128;BME280;69440;52.118;5.408;2023-07-13T13:44:28;101798.81;;;21.81;66.14
80128;BME280;69440;52.118;5.408;2023-07-13T13:46:55;101798.41;;;21.95;66.79